Time;durP1;ratioP1;P1;durP2;ratioP2;P2;SDS_P1;SDS_P2;PMS_P1;PMS_P2;Temp;Humidity;BMP_temperature;BMP_pressure;BME280_temperature;BME280_humidity;BME280_pressure;Samples;Min_cycle;Max_cycle;Signal;HPM_P1;HPM_P2
2022/11/15 00:04:57;;;;;;;92.83;42.70;;;;;;;4.71;100.00;100710.73;3531106;82;31561;-85
2022/11/15 00:09:58;;;;;;;87.50;40.57;;;;;;;4.74;100.00;100705.41;3521903;82;99122;-86
2022/11/15 00:14:58;;;;;;;101.07;43.08;;;;;;;4.76;100.00;100693.60;3526650;82;30248;-87
2022/11/15 00:19:59;;;;;;;91.57;41.30;;;;;;;4.77;100.00;100699.87;3531073;82;99302;-85
2022/11/15 00:25:00;;;;;;;90.53;42.20;;;;;;;4.78;100.00;100688.64;3515584;82;26429;-85
2022/11/15 00:30:01;;;;;;;89.00;39.45;;;;;;;4.83;100.00;100690.36;3517580;82;98728;-85
2022/11/15 00:35:02;;;;;;;101.50;44.83;;;;;;;4.85;100.00;100688.12;3522630;82;34845;-86
2022/11/15 00:40:04;;;;;;;86.53;40.63;;;;;;;4.84;100.00;100677.76;3523976;82;99298;-85
2022/11/15 00:45:07;;;;;;;104.40;43.70;;;;;;;4.86;100.00;100682.89;3516624;82;34895;-86
2022/11/15 00:50:08;;;;;;;87.90;40.20;;;;;;;4.86;100.00;100683.67;3513974;83;99155;-85
2022/11/15 00:55:17;;;;;;;102.30;42.83;;;;;;;4.90;100.00;100679.16;3515700;82;26494;-85
2022/11/15 01:00:18;;;;;;;91.60;42.88;;;;;;;4.93;100.00;100680.41;3507372;83;99094;-85
2022/11/15 01:05:20;;;;;;;94.73;40.80;;;;;;;4.94;100.00;100676.55;3528660;82;27145;-85
2022/11/15 01:10:22;;;;;;;83.27;40.38;;;;;;;4.93;100.00;100677.69;3513538;82;98689;-86
2022/11/15 01:15:23;;;;;;;80.62;41.33;;;;;;;4.97;100.00;100664.41;3526377;82;29809;-86
2022/11/15 01:20:24;;;;;;;81.63;40.77;;;;;;;4.99;100.00;100661.35;3504867;81;98864;-86
2022/11/15 01:25:25;;;;;;;88.13;42.40;;;;;;;5.00;100.00;100648.75;3521423;82;34891;-86
2022/11/15 01:30:26;;;;;;;92.60;42.20;;;;;;;5.01;100.00;100639.98;3504694;83;98850;-85
2022/11/15 01:35:28;;;;;;;91.07;42.20;;;;;;;5.04;100.00;100640.70;3518532;82;34889;-86
2022/11/15 01:40:29;;;;;;;80.03;39.10;;;;;;;5.05;100.00;100641.73;3489264;81;98767;-85
2022/11/15 01:45:30;;;;;;;106.50;46.10;;;;;;;5.05;100.00;100637.64;3485612;83;34793;-86
2022/11/15 01:50:33;;;;;;;84.50;41.40;;;;;;;5.07;100.00;100627.17;3523696;81;98766;-86
2022/11/15 01:55:34;;;;;;;90.10;44.17;;;;;;;5.07;100.00;100614.13;3545940;81;34856;-85
2022/11/15 02:00:35;;;;;;;81.83;40.90;;;;;;;5.07;100.00;100614.13;3546751;81;98607;-85
2022/11/15 02:05:37;;;;;;;89.03;44.03;;;;;;;5.06;100.00;100614.68;3554429;81;34829;-86
2022/11/15 02:10:38;;;;;;;86.80;40.37;;;;;;;5.08;100.00;100604.80;3543668;81;98880;-85
2022/11/15 02:15:54;;;;;;;82.33;40.83;;;;;;;5.06;100.00;100607.05;3543724;81;33339;-85
2022/11/15 02:21:28;;;;;;;79.05;38.75;;;;;;;5.05;100.00;100599.45;3548363;80;98828;-86
2022/11/15 02:27:04;;;;;;;99.13;41.80;;;;;;;5.04;100.00;100600.59;3550189;81;32069;-85
2022/11/15 02:32:21;;;;;;;81.43;38.30;;;;;;;5.03;100.00;100598.97;3552402;81;25792;-85
2022/11/15 02:37:34;;;;;;;76.40;39.03;;;;;;;5.03;100.00;100603.06;3550904;81;98744;-85
2022/11/15 02:48:05;;;;;;;83.23;39.73;;;;;;;5.04;100.00;100597.86;3496651;83;98912;-86
2022/11/15 02:53:08;;;;;;;105.58;41.08;;;;;;;5.03;100.00;100588.06;3502428;82;31769;-86
2022/11/15 02:58:32;;;;;;;74.37;38.10;;;;;;;5.00;100.00;100588.75;3497149;82;98962;-85
2022/11/15 03:04:09;;;;;;;83.23;38.90;;;;;;;4.96;100.00;100582.95;3508445;82;27542;-85
2022/11/15 03:09:21;;;;;;;76.90;37.42;;;;;;;4.93;100.00;100578.15;3479849;81;99007;-86
2022/11/15 03:14:34;;;;;;;72.13;36.27;;;;;;;4.92;100.00;100570.52;3450609;84;28230;-85
2022/11/15 03:19:50;;;;;;;81.20;40.12;;;;;;;4.94;100.00;100576.45;3452973;84;99128;-85
2022/11/15 03:24:53;;;;;;;;;;;;;;;4.96;100.00;100560.55;3487959;82;26815;-85
2022/11/15 03:30:05;;;;;;;72.37;36.95;;;;;;;4.96;100.00;100555.67;3460521;83;84861;-85
2022/11/15 03:35:20;;;;;;;65.52;35.03;;;;;;;4.95;100.00;100557.59;3421534;84;27895;-85
2022/11/15 03:40:45;;;;;;;67.87;35.05;;;;;;;4.95;100.00;100556.78;3439778;84;99010;-86
2022/11/15 03:45:54;;;;;;;65.13;33.40;;;;;;;4.91;100.00;100546.34;3438965;84;26361;-85
2022/11/15 03:50:56;;;;;;;67.12;34.60;;;;;;;4.92;100.00;100546.56;3447705;83;98755;-85
2022/11/15 03:55:57;;;;;;;64.40;33.48;;;;;;;4.74;100.00;100534.23;3455254;83;32507;-83
2022/11/15 04:00:59;;;;;;;67.77;35.63;;;;;;;4.76;100.00;100551.83;3449598;84;98714;-84
2022/11/15 04:06:00;;;;;;;71.07;34.70;;;;;;;4.73;100.00;100556.61;3442903;84;32449;-84
2022/11/15 04:11:01;;;;;;;67.93;36.40;;;;;;;4.76;100.00;100553.78;3455923;83;98741;-84
2022/11/15 04:16:02;;;;;;;69.87;36.67;;;;;;;4.78;100.00;100555.59;3447650;84;35638;-85
2022/11/15 04:26:23;;;;;;;84.23;35.50;;;;;;;4.71;100.00;100530.26;3461294;82;28037;-84
2022/11/15 04:31:24;;;;;;;65.78;34.13;;;;;;;4.73;100.00;100529.34;3477256;83;98578;-84
2022/11/15 04:41:44;;;;;;;83.20;36.13;;;;;;;4.73;100.00;100533.98;3397927;84;98464;-84
2022/11/15 04:46:45;;;;;;;65.47;35.10;;;;;;;4.68;100.00;100543.73;3434737;84;34896;-84
2022/11/15 04:51:45;;;;;;;69.47;34.27;;;;;;;4.68;100.00;100547.27;3397315;84;98759;-84
2022/11/15 04:56:46;;;;;;;75.73;35.20;;;;;;;4.72;100.00;100527.75;3395495;84;34827;-83
2022/11/15 05:01:47;;;;;;;76.30;34.03;;;;;;;4.71;100.00;100525.36;3483842;82;98706;-84
2022/11/15 05:06:50;;;;;;;116.73;38.40;;;;;;;4.70;100.00;100524.55;3503970;82;34882;-84
2022/11/15 05:11:51;;;;;;;70.77;35.53;;;;;;;4.67;100.00;100517.06;3482037;82;98959;-84
2022/11/15 05:16:52;;;;;;;72.97;37.70;;;;;;;4.64;100.00;100502.72;3506247;82;35137;-84
2022/11/15 05:21:52;;;;;;;75.97;36.53;;;;;;;4.64;100.00;100502.72;3488663;82;98893;-84
2022/11/15 05:26:53;;;;;;;66.20;37.43;;;;;;;4.68;100.00;100505.02;3503286;82;34873;-84
2022/11/15 05:31:54;;;;;;;67.75;34.03;;;;;;;4.68;100.00;100492.75;3486997;82;98395;-83
2022/11/15 05:36:55;;;;;;;71.90;35.37;;;;;;;4.66;100.00;100495.58;3503011;82;26462;-84
2022/11/15 05:42:14;;;;;;;66.20;34.73;;;;;;;4.65;100.00;100501.59;3496206;82;98484;-84
2022/11/15 05:47:25;;;;;;;74.80;34.88;;;;;;;4.61;100.00;100499.32;3464695;83;98962;-83
2022/11/15 05:52:30;;;;;;;64.42;33.75;;;;;;;4.62;100.00;100510.45;3498705;82;33485;-84
2022/11/15 05:57:31;;;;;;;68.90;35.68;;;;;;;4.63;100.00;100505.80;3510877;81;99038;-83
2022/11/15 06:02:32;;;;;;;63.17;34.27;;;;;;;4.59;100.00;100500.79;3569182;81;26442;-84
2022/11/15 06:07:33;;;;;;;68.83;35.70;;;;;;;4.57;100.00;100511.20;3554828;81;98969;-84
2022/11/15 06:12:33;;;;;;;71.67;38.40;;;;;;;4.58;100.00;100505.42;3528990;82;32474;-84
2022/11/15 06:17:34;;;;;;;74.60;37.37;;;;;;;4.58;100.00;100510.88;3525461;81;99261;-83
2022/11/15 06:22:35;;;;;;;87.30;38.53;;;;;;;4.60;100.00;100518.73;3524524;83;32462;-83
2022/11/15 06:27:36;;;;;;;76.63;37.03;;;;;;;4.61;100.00;100508.05;3488828;82;98920;-84
2022/11/15 06:32:37;;;;;;;298.80;103.35;;;;;;;4.61;100.00;100510.78;3531532;82;32532;-84
2022/11/15 06:37:38;;;;;;;110.70;45.92;;;;;;;4.58;100.00;100516.33;3521444;81;99432;-83
2022/11/15 06:42:38;;;;;;;108.90;43.43;;;;;;;4.54;100.00;100518.70;3579337;81;26204;-83
2022/11/15 06:47:46;;;;;;;72.40;36.70;;;;;;;4.56;100.00;100519.97;3559363;81;99134;-82
2022/11/15 06:52:47;;;;;;;91.82;41.15;;;;;;;4.60;100.00;100517.36;3527397;82;32333;-82
2022/11/15 06:57:51;;;;;;;135.77;57.03;;;;;;;4.58;100.00;100514.97;3531448;82;98795;-82
2022/11/15 07:02:52;;;;;;;243.70;69.70;;;;;;;4.61;100.00;100530.66;3527184;82;32395;-83
2022/11/15 07:07:54;;;;;;;160.63;54.97;;;;;;;4.61;100.00;100525.22;3526499;82;99037;-83
2022/11/15 07:12:56;;;;;;;158.07;55.52;;;;;;;4.61;100.00;100527.13;3530322;82;30682;-83
2022/11/15 07:18:02;;;;;;;127.62;43.80;;;;;;;4.63;100.00;100528.39;3520566;82;99102;-83
2022/11/15 07:23:05;;;;;;;86.72;39.90;;;;;;;4.67;100.00;100529.33;3532732;82;27426;-83
2022/11/15 07:28:06;;;;;;;73.92;35.58;;;;;;;4.64;100.00;100516.35;3530070;82;98632;-83
2022/11/15 07:33:06;;;;;;;71.23;36.33;;;;;;;4.69;100.00;100529.00;3539147;82;26159;-83
2022/11/15 07:38:07;;;;;;;141.80;49.07;;;;;;;4.73;100.00;100528.53;3520143;82;98966;-83
2022/11/15 07:43:08;;;;;;;84.67;37.33;;;;;;;4.74;100.00;100526.06;3545913;81;26819;-83
2022/11/15 07:48:10;;;;;;;76.90;36.00;;;;;;;4.73;100.00;100518.99;3525163;82;99076;-84
2022/11/15 07:53:11;;;;;;;68.07;35.67;;;;;;;4.73;100.00;100517.08;3530769;82;26003;-83
2022/11/15 07:58:12;;;;;;;103.43;49.83;;;;;;;4.79;100.00;100514.36;3522787;82;98886;-83
2022/11/15 08:03:16;;;;;;;72.83;36.30;;;;;;;4.82;100.00;100508.80;3537983;82;25915;-83
2022/11/15 08:08:17;;;;;;;85.20;41.23;;;;;;;4.83;100.00;100515.30;3534990;82;99232;-83
2022/11/15 08:13:18;;;;;;;82.73;40.27;;;;;;;4.86;100.00;100511.09;3530920;82;26198;-83
2022/11/15 08:18:19;;;;;;;197.63;77.53;;;;;;;4.89;100.00;100508.49;3521386;82;98836;-84
2022/11/15 08:23:19;;;;;;;78.73;40.00;;;;;;;4.95;100.00;100505.77;3483204;83;26437;-84
2022/11/15 08:28:20;;;;;;;106.30;45.77;;;;;;;5.03;100.00;100501.36;3498194;83;98940;-84
2022/11/15 08:33:21;;;;;;;73.23;37.40;;;;;;;5.12;100.00;100491.94;3494002;83;26229;-84
2022/11/15 08:38:22;;;;;;;91.30;41.80;;;;;;;5.19;100.00;100494.11;3493363;83;98839;-83
2022/11/15 08:43:25;;;;;;;91.53;42.30;;;;;;;5.25;100.00;100483.98;3492025;83;26500;-83
2022/11/15 08:48:26;;;;;;;69.47;35.30;;;;;;;5.33;100.00;100482.28;3493945;82;99239;-82
2022/11/15 08:53:27;;;;;;;193.00;79.82;;;;;;;5.39;100.00;100471.37;3537733;82;25958;-84
2022/11/15 08:58:28;;;;;;;125.57;63.10;;;;;;;5.49;100.00;100475.02;3514790;82;99338;-84
2022/11/15 09:03:29;;;;;;;148.93;74.40;;;;;;;5.61;100.00;100473.64;3465436;83;26520;-84
2022/11/15 09:08:31;;;;;;;80.80;43.87;;;;;;;5.69;100.00;100468.08;3481450;82;99073;-83
2022/11/15 09:13:33;;;;;;;71.77;38.40;;;;;;;5.76;100.00;100462.02;3535326;82;25866;-84
2022/11/15 09:18:34;;;;;;;72.53;39.17;;;;;;;5.86;100.00;100466.48;3493419;82;99314;-84
2022/11/15 09:23:35;;;;;;;71.97;36.23;;;;;;;5.97;100.00;100462.14;3416800;85;26107;-84
2022/11/15 09:28:37;;;;;;;96.20;48.23;;;;;;;6.06;100.00;100469.61;3371584;84;99011;-84
2022/11/15 09:33:38;;;;;;;85.30;40.70;;;;;;;6.17;100.00;100466.61;3412240;85;26400;-83
2022/11/15 09:38:40;;;;;;;74.13;39.63;;;;;;;6.14;100.00;100470.61;3441012;82;98751;-83
2022/11/15 09:44:20;;;;;;;81.17;39.73;;;;;;;6.20;100.00;100466.49;3516425;82;26257;-83
2022/11/15 09:49:22;;;;;;;75.65;40.88;;;;;;;6.27;100.00;100459.30;3493246;82;98761;-84
2022/11/15 09:54:33;;;;;;;85.30;43.75;;;;;;;6.35;100.00;100455.64;3463828;83;32511;-83
2022/11/15 10:00:21;;;;;;;76.95;36.88;;;;;;;6.51;100.00;100452.94;3523733;80;98822;-83
2022/11/15 10:05:25;;;;;;;78.42;41.98;;;;;;;6.48;100.00;100444.05;3603058;80;27436;-83
2022/11/15 10:10:46;;;;;;;80.72;39.65;;;;;;;6.50;100.00;100441.78;3504087;80;98768;-84
2022/11/15 10:15:48;;;;;;;80.97;43.00;;;;;;;6.48;100.00;100439.95;3464004;84;29672;-83
2022/11/15 10:20:54;;;;;;;81.63;41.70;;;;;;;6.59;100.00;100445.14;3430441;84;98839;-83
2022/11/15 10:25:58;;;;;;;84.85;43.17;;;;;;;6.67;100.00;100446.38;3455075;84;27442;-84
2022/11/15 10:31:01;;;;;;;86.03;44.87;;;;;;;6.76;100.00;100436.05;3420721;83;98914;-83
2022/11/15 10:36:23;;;;;;;81.40;42.33;;;;;;;6.86;100.00;100428.69;3423323;85;28683;-84
2022/11/15 10:41:34;;;;;;;87.88;44.83;;;;;;;6.94;100.00;100429.11;3410739;84;98811;-83
2022/11/15 10:46:38;;;;;;;90.10;45.85;;;;;;;6.97;100.00;100425.66;3411998;84;31630;-83
2022/11/15 10:51:49;;;;;;;92.10;46.50;;;;;;;6.98;100.00;100426.46;3434926;83;98512;-83
2022/11/15 10:56:57;;;;;;;92.87;47.43;;;;;;;7.05;100.00;100419.23;3442752;84;27710;-83
2022/11/15 11:01:58;;;;;;;91.55;44.93;;;;;;;7.08;100.00;100417.70;3410591;84;98515;-83
2022/11/15 11:07:00;;;;;;;85.67;42.10;;;;;;;7.15;100.00;100413.19;3425012;85;26235;-83
2022/11/15 11:12:02;;;;;;;103.77;49.70;;;;;;;7.20;100.00;100411.56;3525315;82;98631;-83
2022/11/15 11:17:43;;;;;;;101.10;50.55;;;;;;;7.34;100.00;100408.36;3531011;82;108554;-84
2022/11/15 11:22:56;;;;;;;97.90;52.95;;;;;;;7.43;100.00;100398.03;3452270;84;32388;-84
2022/11/15 11:28:25;;;;;;;92.20;46.95;;;;;;;7.47;100.00;100385.22;3462204;83;98827;-84
2022/11/15 11:33:53;;;;;;;95.37;49.27;;;;;;;7.57;100.00;100384.08;3474262;82;28682;-84
2022/11/15 11:39:15;;;;;;;90.30;46.13;;;;;;;7.71;100.00;100370.70;3468729;82;98744;-83
2022/11/15 11:44:24;;;;;;;81.50;41.28;;;;;;;7.72;100.00;100364.62;3424109;84;33089;-82
2022/11/15 11:49:36;;;;;;;84.93;44.37;;;;;;;7.67;100.00;100355.32;3480586;82;98886;-83
2022/11/15 11:55:07;;;;;;;82.45;42.67;;;;;;;7.70;100.00;100350.51;3521816;82;31557;-83
2022/11/15 12:00:22;;;;;;;85.07;43.77;;;;;;;7.82;100.00;100349.00;3523249;81;98784;-84
2022/11/15 12:05:36;;;;;;;74.35;39.98;;;;;;;7.86;100.00;100349.27;3546077;82;31191;-83
2022/11/15 12:10:40;;;;;;;84.17;42.17;;;;;;;7.97;100.00;100342.66;3470116;82;99746;-83
2022/11/15 12:16:07;;;;;;;76.75;41.28;;;;;;;8.04;100.00;100331.83;3461415;84;30726;-83
2022/11/15 12:21:25;;;;;;;94.67;52.48;;;;;;;8.14;100.00;100338.09;3538581;82;98820;-83
2022/11/15 12:26:32;;;;;;;109.25;53.25;;;;;;;8.25;100.00;100332.27;3560657;81;30654;-84
2022/11/15 12:31:47;;;;;;;92.82;49.35;;;;;;;8.27;100.00;100327.20;3482416;81;99036;-83
2022/11/15 12:36:50;;;;;;;102.60;50.28;;;;;;;8.30;100.00;100327.86;3475753;83;31855;-84
2022/11/15 12:42:02;;;;;;;82.27;42.85;;;;;;;8.22;100.00;100317.33;3517225;81;99250;-83
2022/11/15 12:47:23;;;;;;;85.45;46.58;;;;;;;8.21;100.00;100328.66;3518635;82;98651;-85
2022/11/15 12:52:24;;;;;;;91.92;47.23;;;;;;;8.12;100.00;100313.01;3506214;83;32476;-84
2022/11/15 12:57:36;;;;;;;97.90;48.23;;;;;;;8.13;100.00;100312.63;3489661;82;98848;-85
2022/11/15 13:02:47;;;;;;;109.35;51.58;;;;;;;8.18;100.00;100310.95;3412594;85;30660;-85
2022/11/15 13:07:56;;;;;;;116.65;52.15;;;;;;;8.12;100.00;100299.30;3423441;83;99334;-84
2022/11/15 13:13:00;;;;;;;97.70;49.35;;;;;;;8.08;100.00;100296.47;3505124;82;33058;-84
2022/11/15 13:18:36;;;;;;;103.85;54.85;;;;;;;8.01;100.00;100290.09;3509556;81;98910;-83
2022/11/15 13:23:37;;;;;;;104.17;53.28;;;;;;;8.06;100.00;100287.83;3546569;81;31117;-84
2022/11/15 13:28:53;;;;;;;96.27;48.20;;;;;;;8.08;100.00;100277.28;3521822;81;99057;-84
2022/11/15 13:34:02;;;;;;;112.70;57.00;;;;;;;8.01;100.00;100273.64;3466523;82;27453;-84
2022/11/15 13:39:08;;;;;;;98.80;49.00;;;;;;;7.79;100.00;100273.02;3472459;82;99101;-83
2022/11/15 13:44:14;;;;;;;90.75;46.20;;;;;;;7.78;100.00;100268.11;3484014;83;28734;-83
2022/11/15 13:49:16;;;;;;;;;;;;;;;7.79;100.00;100271.06;3475420;82;99139;-84
2022/11/15 13:54:36;;;;;;;81.75;39.80;;;;;;;7.76;100.00;100267.69;3443219;84;31017;-84
2022/11/15 13:59:48;;;;;;;75.05;38.65;;;;;;;7.77;100.00;100271.20;3573806;80;99163;-85
2022/11/15 14:05:01;;;;;;;75.15;39.98;;;;;;;7.73;100.00;100268.97;3608080;80;32382;-84
2022/11/15 14:10:19;;;;;;;108.85;48.48;;;;;;;7.61;100.00;100263.08;3595193;79;99063;-83
2022/11/15 14:15:38;;;;;;;82.67;42.62;;;;;;;7.40;100.00;100276.89;3558889;80;31693;-83
2022/11/15 14:20:39;;;;;;;85.83;43.65;;;;;;;7.35;100.00;100272.50;3567850;79;98750;-83
2022/11/15 14:25:40;;;;;;;77.97;40.10;;;;;;;7.34;100.00;100270.12;3558847;81;26492;-84
2022/11/15 14:30:46;;;;;;;76.73;43.93;;;;;;;7.37;100.00;100266.67;3558036;80;98941;-83
2022/11/15 14:35:46;;;;;;;97.53;45.30;;;;;;;7.35;100.00;100259.38;3555696;81;26100;-84
2022/11/15 14:40:47;;;;;;;78.90;41.17;;;;;;;7.33;100.00;100253.48;3527664;80;98975;-83
2022/11/15 14:45:48;;;;;;;91.20;47.50;;;;;;;7.26;100.00;100258.81;3546550;82;26172;-84
2022/11/15 14:50:49;;;;;;;87.13;42.27;;;;;;;7.22;100.00;100257.37;3546032;80;98811;-83
2022/11/15 14:55:50;;;;;;;63.47;36.37;;;;;;;7.17;100.00;100248.64;3588418;80;26455;-84
2022/11/15 15:00:51;;;;;;;71.43;36.47;;;;;;;7.08;100.00;100224.78;3597136;80;99058;-83
2022/11/15 15:05:52;;;;;;;63.73;34.67;;;;;;;6.97;100.00;100227.30;3620122;78;25972;-83
2022/11/15 15:10:53;;;;;;;62.93;35.20;;;;;;;6.89;100.00;100229.67;3512099;80;98657;-83
2022/11/15 15:15:54;;;;;;;60.53;32.67;;;;;;;6.92;100.00;100242.62;3502650;83;25892;-83
2022/11/15 15:21:01;;;;;;;63.68;33.58;;;;;;;6.82;100.00;100233.59;3573863;80;99059;-83
2022/11/15 15:26:00;;;;;;;75.22;38.25;;;;;;;6.65;100.00;100215.44;3624899;80;25935;-83
2022/11/15 15:31:02;;;;;;;69.50;36.63;;;;;;;6.35;100.00;100191.08;3655733;79;99130;-84
2022/11/15 15:36:04;;;;;;;70.40;38.53;;;;;;;6.35;100.00;100191.08;3660381;79;33254;-83
2022/11/15 15:41:11;;;;;;;66.13;30.87;;;;;;;6.41;100.00;100198.66;3665661;79;98765;-83
2022/11/15 15:46:15;;;;;;;56.03;31.10;;;;;;;6.40;100.00;100206.65;3669066;79;25810;-85
2022/11/15 15:51:16;;;;;;;61.70;32.55;;;;;;;6.32;100.00;100204.10;3642777;79;98935;-85
2022/11/15 15:56:16;;;;;;;55.47;33.40;;;;;;;6.23;100.00;100209.72;3663894;79;33269;-85
2022/11/15 16:01:17;;;;;;;84.67;40.37;;;;;;;6.20;100.00;100215.91;3585720;80;99033;-84
2022/11/15 16:06:38;;;;;;;76.20;36.47;;;;;;;6.22;100.00;100217.70;3522152;82;33168;-84
2022/11/15 16:11:40;;;;;;;88.30;39.60;;;;;;;6.16;100.00;100210.92;3566518;81;98731;-84
2022/11/15 16:16:40;;;;;;;82.17;40.63;;;;;;;6.12;100.00;100212.77;3479294;83;33642;-84
2022/11/15 16:21:42;;;;;;;71.47;35.57;;;;;;;6.17;100.00;100223.43;3516200;82;98685;-84
2022/11/15 16:26:43;;;;;;;87.07;39.77;;;;;;;6.19;100.00;100215.69;3497284;81;33229;-84
2022/11/15 16:31:44;;;;;;;84.37;41.00;;;;;;;6.20;100.00;100214.55;3501490;82;99230;-85
2022/11/15 16:36:44;;;;;;;75.95;35.92;;;;;;;6.23;100.00;100200.75;3629351;80;33354;-85
2022/11/15 16:41:46;;;;;;;84.93;41.20;;;;;;;6.23;100.00;100203.48;3548867;80;98984;-85
2022/11/15 16:46:50;;;;;;;114.93;51.97;;;;;;;6.22;100.00;100210.09;3527532;82;33283;-85
2022/11/15 16:51:50;;;;;;;79.72;39.30;;;;;;;6.26;100.00;100206.30;3444381;82;98880;-84
2022/11/15 16:56:51;;;;;;;106.93;47.53;;;;;;;6.32;100.00;100210.94;3439717;83;33443;-85
2022/11/15 17:01:53;;;;;;;98.73;45.17;;;;;;;6.36;100.00;100209.86;3430756;83;98771;-85
2022/11/15 17:06:53;;;;;;;91.57;43.13;;;;;;;6.37;100.00;100211.44;3492068;83;33244;-85
2022/11/15 17:11:54;;;;;;;104.03;47.13;;;;;;;6.38;100.00;100198.58;3409983;83;98402;-85
2022/11/15 17:16:55;;;;;;;90.00;43.53;;;;;;;6.41;100.00;100194.56;3501609;83;33220;-85
2022/11/15 17:21:56;;;;;;;84.20;41.37;;;;;;;6.42;100.00;100192.05;3576914;81;98725;-85
2022/11/15 17:26:56;;;;;;;68.77;34.70;;;;;;;6.42;100.00;100192.05;3569936;81;33215;-85
2022/11/15 17:31:57;;;;;;;75.47;37.13;;;;;;;6.43;100.00;100186.02;3452387;82;98334;-85
2022/11/15 17:36:58;;;;;;;70.80;36.10;;;;;;;6.44;100.00;100182.13;3453903;83;32252;-85
2022/11/15 17:41:59;;;;;;;68.93;34.93;;;;;;;6.41;100.00;100189.09;3463931;84;98418;-85
2022/11/15 17:47:00;;;;;;;76.23;38.67;;;;;;;6.38;100.00;100192.53;3463125;84;32190;-85
2022/11/15 17:52:00;;;;;;;64.13;32.23;;;;;;;6.37;100.00;100186.04;3405078;83;98524;-85
2022/11/15 17:57:01;;;;;;;75.77;35.67;;;;;;;6.35;100.00;100190.52;3394732;85;31638;-85
2022/11/15 18:02:02;;;;;;;83.67;41.23;;;;;;;6.37;100.00;100198.34;3475971;83;98694;-85
2022/11/15 18:07:03;;;;;;;73.87;35.87;;;;;;;6.38;100.00;100188.42;3485588;83;98595;-85
2022/11/15 18:12:04;;;;;;;79.87;39.73;;;;;;;6.37;100.00;100181.38;3465394;82;29831;-85
2022/11/15 18:17:05;;;;;;;81.13;39.33;;;;;;;6.37;100.00;100170.45;3455166;82;99117;-84
2022/11/15 18:22:08;;;;;;;85.60;41.43;;;;;;;6.38;100.00;100152.13;3416209;85;34976;-85
2022/11/15 18:27:08;;;;;;;74.58;36.23;;;;;;;6.37;100.00;100152.68;3411743;85;98966;-85
2022/11/15 18:32:14;;;;;;;76.10;35.93;;;;;;;6.39;100.00;100151.74;3459731;84;25850;-85
2022/11/15 18:37:14;;;;;;;91.33;42.03;;;;;;;6.41;100.00;100141.27;3451441;83;99040;-84
2022/11/15 18:42:15;;;;;;;87.43;41.70;;;;;;;6.43;100.00;100148.52;3484166;83;26421;-86
2022/11/15 18:47:16;;;;;;;99.93;45.50;;;;;;;6.44;100.00;100152.06;3471659;82;108485;-84
2022/11/15 18:52:17;;;;;;;91.97;40.57;;;;;;;6.42;100.00;100155.70;3521584;82;34896;-84
2022/11/15 18:57:18;;;;;;;83.20;38.40;;;;;;;6.37;100.00;100147.78;3508760;83;98982;-84
2022/11/15 19:02:19;;;;;;;85.27;38.30;;;;;;;6.34;100.00;100151.23;3475857;82;98952;-84
2022/11/15 19:07:19;;;;;;;90.00;40.27;;;;;;;6.32;100.00;100150.81;3441220;84;35510;-84
2022/11/15 19:12:20;;;;;;;83.17;39.00;;;;;;;6.30;100.00;100152.53;3482641;83;98869;-85
2022/11/15 19:17:21;;;;;;;90.77;40.60;;;;;;;6.29;100.00;100146.84;3491795;83;99217;-83
2022/11/15 19:22:22;;;;;;;96.00;42.23;;;;;;;6.27;100.00;100138.78;3502903;83;25900;-84
2022/11/15 19:27:23;;;;;;;101.90;43.33;;;;;;;6.22;100.00;100143.92;3506852;82;98755;-85
2022/11/15 19:32:27;;;;;;;102.58;43.63;;;;;;;6.21;100.00;100149.77;3521487;82;32445;-85
2022/11/15 19:37:27;;;;;;;103.25;44.42;;;;;;;6.19;100.00;100146.02;3469662;82;99123;-84
2022/11/15 19:42:28;;;;;;;98.37;43.67;;;;;;;6.21;100.00;100142.94;3468872;84;26146;-85
2022/11/15 19:47:29;;;;;;;103.73;45.10;;;;;;;6.23;100.00;100142.77;3502073;82;99060;-85
2022/11/15 19:52:30;;;;;;;104.07;44.33;;;;;;;6.27;100.00;100142.88;3520561;82;32602;-85
2022/11/15 19:57:31;;;;;;;107.03;45.23;;;;;;;6.26;100.00;100134.44;3531860;82;99166;-84
2022/11/15 20:02:32;;;;;;;94.20;40.43;;;;;;;6.29;100.00;100136.48;3543757;82;32488;-84
2022/11/15 20:07:33;;;;;;;84.50;37.30;;;;;;;6.26;100.00;100140.71;3533384;82;98820;-83
2022/11/15 20:12:33;;;;;;;96.00;39.47;;;;;;;6.26;100.00;100142.64;3540386;82;32465;-83
2022/11/15 20:17:34;;;;;;;94.03;39.48;;;;;;;6.25;100.00;100153.36;3536982;82;98838;-84
2022/11/15 20:22:35;;;;;;;97.07;41.20;;;;;;;6.23;100.00;100144.14;3529247;82;27491;-84
2022/11/15 20:27:36;;;;;;;98.47;42.47;;;;;;;6.24;100.00;100140.28;3517904;82;98825;-83
2022/11/15 20:32:37;;;;;;;89.80;37.17;;;;;;;6.23;100.00;100137.91;3528965;82;26577;-85
2022/11/15 20:37:37;;;;;;;81.93;33.83;;;;;;;6.16;100.00;100135.01;3459044;81;98722;-85
2022/11/15 20:42:38;;;;;;;86.47;36.73;;;;;;;6.14;100.00;100123.06;3465155;83;25922;-85
2022/11/15 20:47:39;;;;;;;84.63;34.43;;;;;;;6.17;100.00;100118.23;3556850;80;99288;-86
2022/11/15 20:52:40;;;;;;;87.30;37.60;;;;;;;6.19;100.00;100110.50;3552746;81;25930;-84
2022/11/15 20:57:41;;;;;;;100.34;44.56;;;;;;;6.17;100.00;100103.21;3470871;82;98901;-85
2022/11/15 21:02:42;;;;;;;101.40;41.17;;;;;;;6.15;100.00;100101.98;3465605;83;33211;-85
2022/11/15 21:07:43;;;;;;;93.57;35.37;;;;;;;6.13;100.00;100103.72;3530196;81;98893;-85
2022/11/15 21:12:44;;;;;;;95.33;39.03;;;;;;;6.16;100.00;100100.27;3546482;82;33475;-85
2022/11/15 21:17:45;;;;;;;83.23;33.43;;;;;;;6.16;100.00;100096.76;3506581;82;98795;-84
2022/11/15 21:22:45;;;;;;;92.43;35.37;;;;;;;6.17;100.00;100098.34;3507563;83;33215;-85
2022/11/15 21:27:46;;;;;;;84.50;33.70;;;;;;;6.15;100.00;100088.31;3467588;83;98904;-85
2022/11/15 21:32:47;;;;;;;98.87;36.17;;;;;;;6.15;100.00;100079.56;3478244;83;33202;-84
2022/11/15 21:37:48;;;;;;;95.30;37.27;;;;;;;6.16;100.00;100062.61;3460404;83;99027;-85
2022/11/15 21:42:49;;;;;;;90.64;34.98;;;;;;;6.16;100.00;100061.23;3465295;84;33253;-84
2022/11/15 21:47:50;;;;;;;86.27;32.47;;;;;;;6.10;100.00;100062.08;3491376;82;98736;-85
2022/11/15 21:52:50;;;;;;;87.33;34.07;;;;;;;6.10;100.00;100062.08;3488120;83;31587;-84
2022/11/15 21:57:51;;;;;;;82.90;32.10;;;;;;;6.12;100.00;100072.66;3515769;81;98795;-85
2022/11/15 22:02:52;;;;;;;85.77;32.27;;;;;;;6.07;100.00;100072.37;3518181;82;31652;-86
2022/11/15 22:07:53;;;;;;;79.87;31.33;;;;;;;6.08;100.00;100058.11;3470527;81;98787;-85
2022/11/15 22:12:54;;;;;;;82.27;32.77;;;;;;;6.08;100.00;100062.21;3455810;84;31740;-85
2022/11/15 22:17:58;;;;;;;77.23;31.03;;;;;;;6.09;100.00;100061.06;3521686;82;98644;-87
2022/11/15 22:23:00;;;;;;;69.50;29.70;;;;;;;6.08;100.00;100053.45;3522691;82;31657;-84
2022/11/15 22:28:01;;;;;;;70.67;27.20;;;;;;;6.06;100.00;100053.59;3494439;82;98636;-85
2022/11/15 22:33:02;;;;;;;67.63;26.13;;;;;;;6.08;100.00;100054.82;3493304;82;31701;-85
2022/11/15 22:38:04;;;;;;;68.03;27.83;;;;;;;6.09;100.00;100054.23;3446481;83;98812;-85
2022/11/15 22:43:05;;;;;;;69.67;28.23;;;;;;;6.06;100.00;100062.56;3439965;84;30439;-84
2022/11/15 22:48:07;;;;;;;68.50;29.35;;;;;;;6.07;100.00;100060.63;3446022;82;98743;-84
2022/11/15 22:53:08;;;;;;;77.23;29.80;;;;;;;6.06;100.00;100053.59;3452190;84;31765;-84
2022/11/15 22:58:09;;;;;;;64.70;27.37;;;;;;;6.07;100.00;100059.27;3440679;84;32034;-86
2022/11/15 23:03:11;;;;;;;74.27;29.40;;;;;;;6.08;100.00;100057.55;3469235;84;98965;-86
2022/11/15 23:08:12;;;;;;;62.77;27.07;;;;;;;6.06;100.00;100039.34;3535577;82;31643;-86
2022/11/15 23:13:17;;;;;;;64.17;26.17;;;;;;;6.00;100.00;100039.41;3531009;82;99088;-86
2022/11/15 23:18:18;;;;;;;61.08;27.52;;;;;;;5.99;100.00;100040.55;3474751;84;33912;-86
2022/11/15 23:23:20;;;;;;;64.67;27.27;;;;;;;5.97;100.00;100040.13;3443914;82;99051;-84